메인 페이지
METAR-TAF:

METAR-TAF

공항 :

Petrolina, 페르남부쿠, 브라질

위도: 09-21S, 경도: 040-33W, 고도: 385m

현재 날씨관측

예보는 19분 전, 23:00시(UTC)에 발표되었습니다.
3kt
온도 25°C
습도 57%
기압 1019 hPa
시정 10km 이상
고도 3500ft 상공 구름 보통
고도 7000ft 상공 구름 보통

METAR: SBPL 202300Z 19003KT 9999 SCT035 SCT070 25/16 Q1019

시각: 20:19 (23:19 UTC)

예보

예보는 8 시간 4분 전, 15:15시(UTC)에 발표되었습니다.
예보 대상 시간: 20일 18시부터 21일 18시까지 (UTC)
10kt
시정 10km 이상
고도 2500ft 상공 구름 보통

TAF: SBPL 201515Z 2018/2118 17010KT 9999 SCT025 TX30/2018Z TN21/2106Z RMK PHD

4,000개 이상의 공항 관측 자료 및 예보 (METAR 및 TAF 보고).

지도상에서 검색 가능한 기상관측소가 노란 점과 빨간 점으로 표시되어 있습니다.

기상관측소 명을 보려면 표시 위로 마우스를 이동하세요.

날씨 관측과 예보를 보려면 클릭하세요.

지도 변경 : 확대하려면 엑스 표시가 있는 녹색 버튼, 축소하려면 빼기 표시가 있는 녹색 버튼, 다음 페이지의 지도를 보려면 녹색 화살표를 클릭하세요.


METAR-TAF: